sensor_id;sensor_type;location;lat;lon;timestamp;pressure;altitude;pressure_sealevel;temperature;humidity
78485;BME280;67773;50.806;8.776;2023-09-19T00:00:57;98936.75;;;16.11;85.00
78485;BME280;67773;50.806;8.776;2023-09-19T00:03:23;98939.16;;;16.14;84.84
78485;BME280;67773;50.806;8.776;2023-09-19T00:05:50;98943.09;;;16.10;85.12
78485;BME280;67773;50.806;8.776;2023-09-19T00:08:15;98946.97;;;16.17;85.06
78485;BME280;67773;50.806;8.776;2023-09-19T00:10:41;98948.47;;;16.10;85.26
78485;BME280;67773;50.806;8.776;2023-09-19T00:13:07;98947.47;;;16.11;85.13
78485;BME280;67773;50.806;8.776;2023-09-19T00:15:41;98948.38;;;16.00;85.69
78485;BME280;67773;50.806;8.776;2023-09-19T00:18:07;98955.00;;;15.96;85.54
78485;BME280;67773;50.806;8.776;2023-09-19T00:20:36;98956.28;;;16.02;85.35
78485;BME280;67773;50.806;8.776;2023-09-19T00:23:01;98956.22;;;15.92;86.13
78485;BME280;67773;50.806;8.776;2023-09-19T00:25:37;98960.97;;;15.88;86.14
78485;BME280;67773;50.806;8.776;2023-09-19T00:28:06;98951.03;;;15.79;86.21
78485;BME280;67773;50.806;8.776;2023-09-19T00:30:33;98963.72;;;15.77;86.46
78485;BME280;67773;50.806;8.776;2023-09-19T00:32:58;98964.69;;;15.76;86.09
78485;BME280;67773;50.806;8.776;2023-09-19T00:35:23;98965.06;;;15.72;86.83
78485;BME280;67773;50.806;8.776;2023-09-19T00:37:49;98973.84;;;15.74;86.85
78485;BME280;67773;50.806;8.776;2023-09-19T00:40:15;98966.69;;;15.63;86.62
78485;BME280;67773;50.806;8.776;2023-09-19T00:42:41;98973.75;;;15.64;86.45
78485;BME280;67773;50.806;8.776;2023-09-19T00:45:12;98975.91;;;15.59;86.03
78485;BME280;67773;50.806;8.776;2023-09-19T00:47:42;98994.63;;;15.59;85.93
78485;BME280;67773;50.806;8.776;2023-09-19T00:50:09;98998.41;;;15.56;85.96
78485;BME280;67773;50.806;8.776;2023-09-19T00:52:36;98999.75;;;15.51;86.11
78485;BME280;67773;50.806;8.776;2023-09-19T00:55:08;99004.63;;;15.46;86.77
78485;BME280;67773;50.806;8.776;2023-09-19T00:57:34;99006.59;;;15.44;86.79
78485;BME280;67773;50.806;8.776;2023-09-19T01:00:02;99005.13;;;15.40;87.49
78485;BME280;67773;50.806;8.776;2023-09-19T01:02:32;99012.56;;;15.36;87.69
78485;BME280;67773;50.806;8.776;2023-09-19T01:05:01;99015.47;;;15.44;86.65
78485;BME280;67773;50.806;8.776;2023-09-19T01:07:27;99023.97;;;15.38;86.84
78485;BME280;67773;50.806;8.776;2023-09-19T01:09:55;99024.69;;;15.40;86.13
78485;BME280;67773;50.806;8.776;2023-09-19T01:12:34;99029.91;;;15.42;83.81
78485;BME280;67773;50.806;8.776;2023-09-19T01:23:21;99045.50;;;15.37;78.91
78485;BME280;67773;50.806;8.776;2023-09-19T01:26:01;99038.19;;;15.39;77.41
78485;BME280;67773;50.806;8.776;2023-09-19T01:28:34;99040.25;;;15.46;75.96
78485;BME280;67773;50.806;8.776;2023-09-19T01:31:04;99043.41;;;15.40;75.80
78485;BME280;67773;50.806;8.776;2023-09-19T01:33:56;99049.16;;;15.36;75.71
78485;BME280;67773;50.806;8.776;2023-09-19T01:36:24;99044.91;;;15.33;75.54
78485;BME280;67773;50.806;8.776;2023-09-19T01:38:53;99047.22;;;15.26;75.89
78485;BME280;67773;50.806;8.776;2023-09-19T01:41:26;99039.06;;;15.28;75.29
78485;BME280;67773;50.806;8.776;2023-09-19T01:43:55;99043.56;;;15.16;76.54
78485;BME280;67773;50.806;8.776;2023-09-19T01:46:25;99044.06;;;15.10;76.00
78485;BME280;67773;50.806;8.776;2023-09-19T01:49:14;99052.06;;;15.10;76.40
78485;BME280;67773;50.806;8.776;2023-09-19T01:52:11;99053.03;;;15.09;76.42
78485;BME280;67773;50.806;8.776;2023-09-19T01:54:50;99049.91;;;15.04;76.62
78485;BME280;67773;50.806;8.776;2023-09-19T02:00:13;99057.19;;;15.02;77.27
78485;BME280;67773;50.806;8.776;2023-09-19T02:02:42;99050.63;;;14.95;76.89
78485;BME280;67773;50.806;8.776;2023-09-19T02:05:09;99054.53;;;14.91;77.24
78485;BME280;67773;50.806;8.776;2023-09-19T02:07:35;99057.53;;;14.86;77.32
78485;BME280;67773;50.806;8.776;2023-09-19T02:10:03;99063.47;;;14.90;77.68
78485;BME280;67773;50.806;8.776;2023-09-19T02:12:30;99063.88;;;14.96;77.81
78485;BME280;67773;50.806;8.776;2023-09-19T02:14:56;99057.66;;;14.85;78.21
78485;BME280;67773;50.806;8.776;2023-09-19T02:17:22;99069.31;;;14.84;78.43
78485;BME280;67773;50.806;8.776;2023-09-19T02:19:51;99066.06;;;14.80;78.47
78485;BME280;67773;50.806;8.776;2023-09-19T02:22:17;99072.25;;;14.81;79.17
78485;BME280;67773;50.806;8.776;2023-09-19T02:24:42;99076.50;;;14.83;79.15
78485;BME280;67773;50.806;8.776;2023-09-19T02:27:08;99080.97;;;14.83;81.03
78485;BME280;67773;50.806;8.776;2023-09-19T02:29:33;99079.50;;;14.79;79.92
78485;BME280;67773;50.806;8.776;2023-09-19T02:32:01;99082.28;;;14.77;80.56
78485;BME280;67773;50.806;8.776;2023-09-19T02:34:27;99088.00;;;14.72;80.74
78485;BME280;67773;50.806;8.776;2023-09-19T02:36:53;99097.22;;;14.80;80.84
78485;BME280;67773;50.806;8.776;2023-09-19T02:39:20;99098.00;;;14.82;81.12
78485;BME280;67773;50.806;8.776;2023-09-19T02:41:45;99091.41;;;14.75;81.33
78485;BME280;67773;50.806;8.776;2023-09-19T02:44:11;99100.16;;;14.77;81.73
78485;BME280;67773;50.806;8.776;2023-09-19T02:46:37;99096.28;;;14.81;80.88
78485;BME280;67773;50.806;8.776;2023-09-19T02:49:03;99092.25;;;14.75;80.83
78485;BME280;67773;50.806;8.776;2023-09-19T02:51:32;99090.19;;;14.79;79.99
78485;BME280;67773;50.806;8.776;2023-09-19T02:53:59;99099.06;;;14.79;79.85
78485;BME280;67773;50.806;8.776;2023-09-19T02:56:24;99095.53;;;14.90;78.61
78485;BME280;67773;50.806;8.776;2023-09-19T02:58:50;99104.06;;;14.84;78.46
78485;BME280;67773;50.806;8.776;2023-09-19T03:01:16;99098.19;;;14.79;78.20
78485;BME280;67773;50.806;8.776;2023-09-19T03:03:43;99095.66;;;14.77;79.06
78485;BME280;67773;50.806;8.776;2023-09-19T03:06:10;99101.00;;;14.77;79.75
78485;BME280;67773;50.806;8.776;2023-09-19T03:08:38;99111.69;;;14.77;79.33
78485;BME280;67773;50.806;8.776;2023-09-19T03:11:04;99105.00;;;14.71;79.51
78485;BME280;67773;50.806;8.776;2023-09-19T03:13:31;99109.53;;;14.82;79.00
78485;BME280;67773;50.806;8.776;2023-09-19T03:15:57;99104.78;;;14.86;78.20
78485;BME280;67773;50.806;8.776;2023-09-19T03:18:24;99104.91;;;14.84;78.33
78485;BME280;67773;50.806;8.776;2023-09-19T03:20:55;99110.72;;;14.89;78.25
78485;BME280;67773;50.806;8.776;2023-09-19T03:23:20;99106.75;;;14.95;77.76
78485;BME280;67773;50.806;8.776;2023-09-19T03:25:46;99103.22;;;14.94;78.24
78485;BME280;67773;50.806;8.776;2023-09-19T03:28:13;99106.75;;;14.95;77.75
78485;BME280;67773;50.806;8.776;2023-09-19T03:30:38;99098.97;;;14.92;78.59
78485;BME280;67773;50.806;8.776;2023-09-19T03:33:04;99113.31;;;14.91;78.61
78485;BME280;67773;50.806;8.776;2023-09-19T03:35:30;99111.50;;;14.91;78.95
78485;BME280;67773;50.806;8.776;2023-09-19T03:37:56;99109.28;;;14.85;79.38
78485;BME280;67773;50.806;8.776;2023-09-19T03:40:21;99112.06;;;14.84;79.47
78485;BME280;67773;50.806;8.776;2023-09-19T03:42:48;99115.47;;;14.86;79.42
78485;BME280;67773;50.806;8.776;2023-09-19T03:45:14;99113.78;;;14.85;79.51
78485;BME280;67773;50.806;8.776;2023-09-19T03:47:40;99119.47;;;14.80;80.13
78485;BME280;67773;50.806;8.776;2023-09-19T03:50:06;99124.00;;;14.91;80.07
78485;BME280;67773;50.806;8.776;2023-09-19T03:52:40;99117.91;;;14.89;80.87
78485;BME280;67773;50.806;8.776;2023-09-19T03:55:06;99117.91;;;14.89;80.27
78485;BME280;67773;50.806;8.776;2023-09-19T03:57:31;99125.19;;;14.98;79.70
78485;BME280;67773;50.806;8.776;2023-09-19T03:59:57;99115.25;;;15.00;79.78
78485;BME280;67773;50.806;8.776;2023-09-19T04:02:23;99123.03;;;15.03;79.23
78485;BME280;67773;50.806;8.776;2023-09-19T04:04:50;99125.94;;;15.00;79.04
78485;BME280;67773;50.806;8.776;2023-09-19T04:07:15;99133.72;;;15.03;78.17
78485;BME280;67773;50.806;8.776;2023-09-19T04:09:41;99142.72;;;15.02;78.34
78485;BME280;67773;50.806;8.776;2023-09-19T04:12:07;99143.31;;;15.06;77.16
78485;BME280;67773;50.806;8.776;2023-09-19T04:14:34;99141.63;;;15.05;76.65
78485;BME280;67773;50.806;8.776;2023-09-19T04:16:59;99146.13;;;15.04;75.58
78485;BME280;67773;50.806;8.776;2023-09-19T04:19:25;99142.94;;;15.10;74.63
78485;BME280;67773;50.806;8.776;2023-09-19T04:21:51;99140.16;;;15.00;72.31
78485;BME280;67773;50.806;8.776;2023-09-19T04:24:16;99153.28;;;15.04;70.87
78485;BME280;67773;50.806;8.776;2023-09-19T04:26:44;99146.97;;;15.05;72.14
78485;BME280;67773;50.806;8.776;2023-09-19T04:29:09;99145.88;;;15.07;70.80
78485;BME280;67773;50.806;8.776;2023-09-19T04:31:36;99139.06;;;15.03;69.77
78485;BME280;67773;50.806;8.776;2023-09-19T04:34:09;99144.69;;;15.11;70.98
78485;BME280;67773;50.806;8.776;2023-09-19T04:36:35;99152.41;;;14.92;72.01
78485;BME280;67773;50.806;8.776;2023-09-19T04:39:04;99150.72;;;14.91;69.77
78485;BME280;67773;50.806;8.776;2023-09-19T04:41:33;99156.78;;;14.93;69.50
78485;BME280;67773;50.806;8.776;2023-09-19T04:43:59;99161.13;;;14.83;70.99
78485;BME280;67773;50.806;8.776;2023-09-19T04:46:25;99160.03;;;14.74;70.41
78485;BME280;67773;50.806;8.776;2023-09-19T04:48:50;99171.06;;;14.69;70.41
78485;BME280;67773;50.806;8.776;2023-09-19T04:51:15;99170.56;;;14.64;70.34
78485;BME280;67773;50.806;8.776;2023-09-19T04:53:41;99174.19;;;14.63;70.55
78485;BME280;67773;50.806;8.776;2023-09-19T04:56:07;99173.59;;;14.60;71.38
78485;BME280;67773;50.806;8.776;2023-09-19T04:58:33;99178.53;;;14.53;71.55
78485;BME280;67773;50.806;8.776;2023-09-19T05:00:59;99180.66;;;14.48;71.49
78485;BME280;67773;50.806;8.776;2023-09-19T05:03:24;99176.94;;;14.38;71.37
78485;BME280;67773;50.806;8.776;2023-09-19T05:05:50;99183.50;;;14.34;72.53
78485;BME280;67773;50.806;8.776;2023-09-19T05:08:15;99188.41;;;14.27;72.56
78485;BME280;67773;50.806;8.776;2023-09-19T05:10:40;99184.47;;;14.33;71.91
78485;BME280;67773;50.806;8.776;2023-09-19T05:13:06;99189.31;;;14.28;72.43
78485;BME280;67773;50.806;8.776;2023-09-19T05:15:33;99180.66;;;14.24;72.35
78485;BME280;67773;50.806;8.776;2023-09-19T05:17:58;99188.22;;;14.30;71.84
78485;BME280;67773;50.806;8.776;2023-09-19T05:20:24;99188.34;;;14.29;72.14
78485;BME280;67773;50.806;8.776;2023-09-19T05:22:58;99196.53;;;14.26;71.78
78485;BME280;67773;50.806;8.776;2023-09-19T05:25:26;99196.97;;;14.32;71.67
78485;BME280;67773;50.806;8.776;2023-09-19T05:27:55;99197.81;;;14.33;71.52
78485;BME280;67773;50.806;8.776;2023-09-19T05:30:21;99192.72;;;14.30;72.43
78485;BME280;67773;50.806;8.776;2023-09-19T05:32:47;99191.22;;;14.26;72.17
78485;BME280;67773;50.806;8.776;2023-09-19T05:35:12;99194.34;;;14.20;73.01
78485;BME280;67773;50.806;8.776;2023-09-19T05:37:38;99197.22;;;14.16;72.56
78485;BME280;67773;50.806;8.776;2023-09-19T05:40:04;99203.09;;;14.22;72.28
78485;BME280;67773;50.806;8.776;2023-09-19T05:42:37;99211.53;;;14.15;72.54
78485;BME280;67773;50.806;8.776;2023-09-19T05:45:04;99201.28;;;14.22;72.06
78485;BME280;67773;50.806;8.776;2023-09-19T05:47:31;99204.44;;;14.27;72.55
78485;BME280;67773;50.806;8.776;2023-09-19T05:49:57;99205.53;;;14.25;72.04
78485;BME280;67773;50.806;8.776;2023-09-19T05:52:22;99212.53;;;14.38;70.82
78485;BME280;67773;50.806;8.776;2023-09-19T05:54:47;99212.13;;;14.32;71.53
78485;BME280;67773;50.806;8.776;2023-09-19T05:57:14;99216.78;;;14.41;71.10
78485;BME280;67773;50.806;8.776;2023-09-19T05:59:40;99218.50;;;14.42;70.91
78485;BME280;67773;50.806;8.776;2023-09-19T06:02:08;99217.22;;;14.35;70.82
78485;BME280;67773;50.806;8.776;2023-09-19T06:04:34;99218.94;;;14.36;70.82
78485;BME280;67773;50.806;8.776;2023-09-19T06:06:59;99234.53;;;14.42;71.15
78485;BME280;67773;50.806;8.776;2023-09-19T06:09:25;99242.66;;;14.40;71.60
78485;BME280;67773;50.806;8.776;2023-09-19T06:11:53;99245.84;;;14.46;72.09
78485;BME280;67773;50.806;8.776;2023-09-19T06:14:18;99247.53;;;14.47;71.58
78485;BME280;67773;50.806;8.776;2023-09-19T06:16:44;99246.91;;;14.43;72.87
78485;BME280;67773;50.806;8.776;2023-09-19T06:19:09;99262.19;;;14.41;72.89
78485;BME280;67773;50.806;8.776;2023-09-19T06:21:35;99260.91;;;14.34;72.80
78485;BME280;67773;50.806;8.776;2023-09-19T06:24:01;99274.56;;;14.42;73.02
78485;BME280;67773;50.806;8.776;2023-09-19T06:26:26;99282.91;;;14.50;73.40
78485;BME280;67773;50.806;8.776;2023-09-19T06:28:52;99289.44;;;14.46;72.76
78485;BME280;67773;50.806;8.776;2023-09-19T06:31:17;99281.34;;;14.59;73.04
78485;BME280;67773;50.806;8.776;2023-09-19T06:33:43;99284.69;;;14.62;74.78
78485;BME280;67773;50.806;8.776;2023-09-19T06:36:08;99283.41;;;14.55;73.77
78485;BME280;67773;50.806;8.776;2023-09-19T06:38:34;99287.50;;;14.48;74.90
78485;BME280;67773;50.806;8.776;2023-09-19T06:41:02;99289.16;;;14.62;74.49
78485;BME280;67773;50.806;8.776;2023-09-19T06:43:30;99296.63;;;14.69;74.38
78485;BME280;67773;50.806;8.776;2023-09-19T06:45:56;99309.88;;;14.58;75.13
78485;BME280;67773;50.806;8.776;2023-09-19T06:48:21;99312.00;;;14.66;75.06
78485;BME280;67773;50.806;8.776;2023-09-19T06:50:46;99317.09;;;14.82;75.26
78485;BME280;67773;50.806;8.776;2023-09-19T06:53:13;99315.94;;;14.97;74.48
78485;BME280;67773;50.806;8.776;2023-09-19T06:55:39;99318.47;;;14.98;75.23
78485;BME280;67773;50.806;8.776;2023-09-19T06:58:05;99320.09;;;15.01;74.52
78485;BME280;67773;50.806;8.776;2023-09-19T07:00:31;99309.41;;;15.01;74.87
78485;BME280;67773;50.806;8.776;2023-09-19T07:03:05;99319.75;;;14.82;75.46
78485;BME280;67773;50.806;8.776;2023-09-19T07:05:34;99320.03;;;14.90;75.50
78485;BME280;67773;50.806;8.776;2023-09-19T07:08:04;99324.81;;;14.97;75.42
78485;BME280;67773;50.806;8.776;2023-09-19T07:10:32;99334.41;;;15.00;75.38
78485;BME280;67773;50.806;8.776;2023-09-19T07:12:58;99337.19;;;14.98;75.53
78485;BME280;67773;50.806;8.776;2023-09-19T07:15:24;99338.03;;;14.99;75.76
78485;BME280;67773;50.806;8.776;2023-09-19T07:17:51;99344.38;;;14.98;75.72
78485;BME280;67773;50.806;8.776;2023-09-19T07:20:17;99350.59;;;15.10;76.06
78485;BME280;67773;50.806;8.776;2023-09-19T07:22:43;99348.09;;;15.19;75.88
78485;BME280;67773;50.806;8.776;2023-09-19T07:25:09;99341.75;;;15.09;75.72
78485;BME280;67773;50.806;8.776;2023-09-19T07:27:34;99348.84;;;15.21;75.60
78485;BME280;67773;50.806;8.776;2023-09-19T07:29:59;99350.97;;;15.40;75.13
78485;BME280;67773;50.806;8.776;2023-09-19T07:32:25;99353.78;;;15.39;75.23
78485;BME280;67773;50.806;8.776;2023-09-19T07:34:50;99356.97;;;15.44;75.24
78485;BME280;67773;50.806;8.776;2023-09-19T07:37:15;99357.56;;;15.47;75.25
78485;BME280;67773;50.806;8.776;2023-09-19T07:39:41;99357.69;;;15.46;74.75
78485;BME280;67773;50.806;8.776;2023-09-19T07:42:07;99359.28;;;15.48;75.18
78485;BME280;67773;50.806;8.776;2023-09-19T07:44:32;99352.38;;;15.57;75.37
78485;BME280;67773;50.806;8.776;2023-09-19T07:46:57;99358.03;;;15.65;74.64
78485;BME280;67773;50.806;8.776;2023-09-19T07:49:23;99349.16;;;15.65;75.23
78485;BME280;67773;50.806;8.776;2023-09-19T07:51:48;99345.41;;;15.78;74.26
78485;BME280;67773;50.806;8.776;2023-09-19T07:54:14;99355.84;;;15.70;74.03
78485;BME280;67773;50.806;8.776;2023-09-19T07:56:40;99352.97;;;15.96;73.28
78485;BME280;67773;50.806;8.776;2023-09-19T07:59:05;99355.84;;;15.81;73.04
78485;BME280;67773;50.806;8.776;2023-09-19T08:01:30;99355.88;;;15.93;72.63
78485;BME280;67773;50.806;8.776;2023-09-19T08:03:56;99349.47;;;16.06;73.20
78485;BME280;67773;50.806;8.776;2023-09-19T08:06:22;99338.84;;;15.94;71.52
78485;BME280;67773;50.806;8.776;2023-09-19T08:08:50;99351.38;;;16.04;72.26
78485;BME280;67773;50.806;8.776;2023-09-19T08:11:16;99342.88;;;16.10;71.50
78485;BME280;67773;50.806;8.776;2023-09-19T08:13:46;99347.03;;;16.37;70.60
78485;BME280;67773;50.806;8.776;2023-09-19T08:16:15;99345.19;;;16.49;69.13
78485;BME280;67773;50.806;8.776;2023-09-19T08:18:41;99342.50;;;16.15;67.88
78485;BME280;67773;50.806;8.776;2023-09-19T08:21:06;99342.63;;;16.25;68.72
78485;BME280;67773;50.806;8.776;2023-09-19T08:23:37;99353.44;;;16.57;66.87
78485;BME280;67773;50.806;8.776;2023-09-19T08:26:03;99355.03;;;16.59;65.85
78485;BME280;67773;50.806;8.776;2023-09-19T08:28:33;99346.88;;;16.50;66.13
78485;BME280;67773;50.806;8.776;2023-09-19T08:31:04;99343.16;;;16.95;64.06
78485;BME280;67773;50.806;8.776;2023-09-19T08:33:35;99347.34;;;16.88;65.01
78485;BME280;67773;50.806;8.776;2023-09-19T08:36:04;99342.22;;;16.85;63.24
78485;BME280;67773;50.806;8.776;2023-09-19T08:38:31;99340.22;;;16.98;62.78
78485;BME280;67773;50.806;8.776;2023-09-19T08:41:04;99349.03;;;16.89;63.73
78485;BME280;67773;50.806;8.776;2023-09-19T08:43:30;99347.69;;;16.95;63.29
78485;BME280;67773;50.806;8.776;2023-09-19T08:46:09;99358.56;;;16.82;63.07
78485;BME280;67773;50.806;8.776;2023-09-19T08:48:39;99360.00;;;16.64;63.16
78485;BME280;67773;50.806;8.776;2023-09-19T08:51:11;99357.13;;;16.78;65.16
78485;BME280;67773;50.806;8.776;2023-09-19T08:53:58;99365.44;;;17.07;61.30
78485;BME280;67773;50.806;8.776;2023-09-19T08:56:29;99358.41;;;17.27;60.62
78485;BME280;67773;50.806;8.776;2023-09-19T08:58:59;99361.66;;;16.98;62.24
78485;BME280;67773;50.806;8.776;2023-09-19T09:01:27;99361.84;;;17.50;61.67
78485;BME280;67773;50.806;8.776;2023-09-19T09:03:54;99362.91;;;18.00;60.10
78485;BME280;67773;50.806;8.776;2023-09-19T09:06:20;99356.16;;;17.64;60.58
78485;BME280;67773;50.806;8.776;2023-09-19T09:08:46;99356.41;;;17.93;60.15
78485;BME280;67773;50.806;8.776;2023-09-19T09:11:15;99359.78;;;17.95;57.75
78485;BME280;67773;50.806;8.776;2023-09-19T09:13:42;99367.16;;;17.29;60.07
78485;BME280;67773;50.806;8.776;2023-09-19T09:16:08;99382.09;;;17.22;59.88
78485;BME280;67773;50.806;8.776;2023-09-19T09:18:35;99364.75;;;17.26;59.92
78485;BME280;67773;50.806;8.776;2023-09-19T09:21:00;99372.78;;;17.58;59.08
78485;BME280;67773;50.806;8.776;2023-09-19T09:23:27;99372.78;;;17.58;58.13
78485;BME280;67773;50.806;8.776;2023-09-19T09:25:55;99362.72;;;18.53;54.86
78485;BME280;67773;50.806;8.776;2023-09-19T09:28:29;99368.44;;;19.19;52.94
78485;BME280;67773;50.806;8.776;2023-09-19T09:30:56;99375.25;;;19.33;53.19
78485;BME280;67773;50.806;8.776;2023-09-19T09:33:23;99362.06;;;20.44;50.84
78485;BME280;67773;50.806;8.776;2023-09-19T09:35:55;99372.19;;;20.88;47.81
78485;BME280;67773;50.806;8.776;2023-09-19T09:38:30;99367.28;;;21.28;46.51
78485;BME280;67773;50.806;8.776;2023-09-19T09:41:08;99372.25;;;21.06;46.65
78485;BME280;67773;50.806;8.776;2023-09-19T09:43:40;99377.56;;;20.23;47.98
78485;BME280;67773;50.806;8.776;2023-09-19T09:49:01;99387.53;;;19.07;51.86
78485;BME280;67773;50.806;8.776;2023-09-19T09:51:59;99383.91;;;18.37;53.11
78485;BME280;67773;50.806;8.776;2023-09-19T09:54:27;99388.09;;;18.30;54.03
78485;BME280;67773;50.806;8.776;2023-09-19T09:57:00;99383.03;;;19.26;51.58
78485;BME280;67773;50.806;8.776;2023-09-19T10:02:16;99370.56;;;19.45;50.62
78485;BME280;67773;50.806;8.776;2023-09-19T10:04:48;99379.38;;;19.76;48.83
78485;BME280;67773;50.806;8.776;2023-09-19T10:07:31;99377.25;;;20.36;48.74
78485;BME280;67773;50.806;8.776;2023-09-19T10:10:35;99383.97;;;20.22;48.14
78485;BME280;67773;50.806;8.776;2023-09-19T10:13:19;99383.03;;;20.78;47.58
78485;BME280;67773;50.806;8.776;2023-09-19T10:15:50;99385.78;;;20.22;49.12
78485;BME280;67773;50.806;8.776;2023-09-19T10:18:22;99376.94;;;20.49;48.95
78485;BME280;67773;50.806;8.776;2023-09-19T10:20:48;99367.59;;;19.48;48.95
78485;BME280;67773;50.806;8.776;2023-09-19T10:23:20;99379.22;;;19.68;48.93
78485;BME280;67773;50.806;8.776;2023-09-19T10:25:48;99380.28;;;20.23;47.71
78485;BME280;67773;50.806;8.776;2023-09-19T10:28:15;99369.03;;;20.28;48.56
78485;BME280;67773;50.806;8.776;2023-09-19T10:33:11;99373.09;;;20.41;47.89
78485;BME280;67773;50.806;8.776;2023-09-19T10:35:46;99385.47;;;19.68;49.55
78485;BME280;67773;50.806;8.776;2023-09-19T10:38:13;99380.59;;;19.04;50.77
78485;BME280;67773;50.806;8.776;2023-09-19T10:40:39;99374.88;;;18.78;51.58
78485;BME280;67773;50.806;8.776;2023-09-19T10:43:16;99374.91;;;18.48;53.34
78485;BME280;67773;50.806;8.776;2023-09-19T10:45:48;99376.25;;;18.11;54.03
78485;BME280;67773;50.806;8.776;2023-09-19T10:48:17;99378.56;;;18.16;54.66
78485;BME280;67773;50.806;8.776;2023-09-19T10:56:42;99363.31;;;18.97;52.04
78485;BME280;67773;50.806;8.776;2023-09-19T10:59:17;99371.97;;;19.10;50.54
78485;BME280;67773;50.806;8.776;2023-09-19T11:01:55;99373.00;;;19.28;50.66
78485;BME280;67773;50.806;8.776;2023-09-19T11:04:28;99372.31;;;18.67;51.65
78485;BME280;67773;50.806;8.776;2023-09-19T11:07:08;99360.84;;;18.74;51.90
78485;BME280;67773;50.806;8.776;2023-09-19T11:09:48;99369.84;;;18.64;52.45
78485;BME280;67773;50.806;8.776;2023-09-19T11:14:59;99359.50;;;18.59;53.37
78485;BME280;67773;50.806;8.776;2023-09-19T11:30:33;99359.66;;;19.75;47.49
78485;BME280;67773;50.806;8.776;2023-09-19T11:33:24;99368.13;;;20.00;46.76
78485;BME280;67773;50.806;8.776;2023-09-19T11:36:09;99355.53;;;19.91;48.39
78485;BME280;67773;50.806;8.776;2023-09-19T11:41:36;99356.66;;;20.99;46.56
78485;BME280;67773;50.806;8.776;2023-09-19T11:49:17;99362.13;;;22.23;42.14
78485;BME280;67773;50.806;8.776;2023-09-19T11:51:50;99361.09;;;21.54;43.08
78485;BME280;67773;50.806;8.776;2023-09-19T11:54:17;99346.97;;;20.52;44.46
78485;BME280;67773;50.806;8.776;2023-09-19T11:56:51;99361.38;;;20.33;45.85
78485;BME280;67773;50.806;8.776;2023-09-19T11:59:29;99350.56;;;19.86;46.53
78485;BME280;67773;50.806;8.776;2023-09-19T12:02:15;99355.13;;;19.85;47.39
78485;BME280;67773;50.806;8.776;2023-09-19T12:04:44;99375.13;;;19.83;47.22
78485;BME280;67773;50.806;8.776;2023-09-19T12:07:16;99359.34;;;19.98;47.43
78485;BME280;67773;50.806;8.776;2023-09-19T12:09:46;99352.56;;;19.55;47.37
78485;BME280;67773;50.806;8.776;2023-09-19T12:12:23;99354.13;;;19.48;47.47
78485;BME280;67773;50.806;8.776;2023-09-19T12:14:53;99354.84;;;19.30;47.92
78485;BME280;67773;50.806;8.776;2023-09-19T12:17:18;99350.31;;;19.41;47.95
78485;BME280;67773;50.806;8.776;2023-09-19T12:19:55;99356.56;;;19.31;48.08
78485;BME280;67773;50.806;8.776;2023-09-19T12:22:21;99352.03;;;19.42;48.07
78485;BME280;67773;50.806;8.776;2023-09-19T12:24:46;99360.38;;;19.19;47.62
78485;BME280;67773;50.806;8.776;2023-09-19T12:27:13;99344.81;;;19.62;47.51
78485;BME280;67773;50.806;8.776;2023-09-19T12:29:46;99352.75;;;19.63;47.80
78485;BME280;67773;50.806;8.776;2023-09-19T12:32:14;99348.84;;;20.04;45.94
78485;BME280;67773;50.806;8.776;2023-09-19T12:34:41;99346.06;;;19.67;46.45
78485;BME280;67773;50.806;8.776;2023-09-19T12:37:15;99328.06;;;20.24;45.34
78485;BME280;67773;50.806;8.776;2023-09-19T12:39:46;99333.88;;;20.19;44.94
78485;BME280;67773;50.806;8.776;2023-09-19T12:42:15;99336.97;;;20.34;45.14
78485;BME280;67773;50.806;8.776;2023-09-19T12:44:42;99331.88;;;21.04;43.21
78485;BME280;67773;50.806;8.776;2023-09-19T12:47:15;99330.19;;;20.58;44.00
78485;BME280;67773;50.806;8.776;2023-09-19T12:52:46;99338.00;;;19.67;45.92
78485;BME280;67773;50.806;8.776;2023-09-19T12:55:24;99339.00;;;19.56;46.93
78485;BME280;67773;50.806;8.776;2023-09-19T12:58:12;99332.25;;;20.46;44.02
78485;BME280;67773;50.806;8.776;2023-09-19T13:00:43;99333.28;;;20.63;42.12
78485;BME280;67773;50.806;8.776;2023-09-19T13:03:25;99340.25;;;21.46;40.89
78485;BME280;67773;50.806;8.776;2023-09-19T13:05:56;99333.38;;;21.70;40.38
78485;BME280;67773;50.806;8.776;2023-09-19T13:08:34;99326.03;;;21.62;40.61
78485;BME280;67773;50.806;8.776;2023-09-19T13:11:16;99326.31;;;23.54;36.62
78485;BME280;67773;50.806;8.776;2023-09-19T13:13:48;99316.03;;;23.74;36.50
78485;BME280;67773;50.806;8.776;2023-09-19T13:16:16;99325.47;;;25.28;34.25
78485;BME280;67773;50.806;8.776;2023-09-19T13:18:49;99313.13;;;25.86;32.21
78485;BME280;67773;50.806;8.776;2023-09-19T13:21:39;99307.25;;;26.27;31.70
78485;BME280;67773;50.806;8.776;2023-09-19T13:24:20;99320.94;;;26.18;32.36
78485;BME280;67773;50.806;8.776;2023-09-19T13:26:47;99315.16;;;25.84;31.23
78485;BME280;67773;50.806;8.776;2023-09-19T13:29:12;99316.78;;;26.23;30.42
78485;BME280;67773;50.806;8.776;2023-09-19T13:31:39;99331.78;;;23.78;35.20
78485;BME280;67773;50.806;8.776;2023-09-19T13:34:06;99334.06;;;21.54;39.55
78485;BME280;67773;50.806;8.776;2023-09-19T13:36:32;99319.56;;;21.01;40.92
78485;BME280;67773;50.806;8.776;2023-09-19T13:38:57;99319.00;;;20.80;41.52
78485;BME280;67773;50.806;8.776;2023-09-19T13:41:24;99321.41;;;20.56;42.67
78485;BME280;67773;50.806;8.776;2023-09-19T13:43:49;99307.84;;;20.48;43.20
78485;BME280;67773;50.806;8.776;2023-09-19T13:46:15;99311.53;;;20.37;43.54
78485;BME280;67773;50.806;8.776;2023-09-19T13:48:42;99314.66;;;20.05;43.00
78485;BME280;67773;50.806;8.776;2023-09-19T13:51:08;99306.84;;;20.49;41.80
78485;BME280;67773;50.806;8.776;2023-09-19T13:53:33;99308.19;;;20.25;41.68
78485;BME280;67773;50.806;8.776;2023-09-19T13:55:59;99302.69;;;20.17;41.58
78485;BME280;67773;50.806;8.776;2023-09-19T13:58:24;99301.78;;;19.89;42.34
78485;BME280;67773;50.806;8.776;2023-09-19T14:00:50;99293.16;;;19.85;43.16